Sam Reyna

Olheiro - Los Angeles Football Club
4 Dez 2028
Segunda-feira
Processo

Personalidade

Adaptabilidade (12) Ambição (16) Controvérsia (13) Lealdade (13) Pressão (18) Profissionalismo (1) Espírito Esportivo (7) Temperamento (3)

Perfil

Estilo de Treinamento Democrático
Licença Nacional A
Determinação 7
Gestão de Pessoas 12
Motivação 7
Disciplina 9
Satisfação no Trabalho
100%
Fadiga
0%
Função Olheiro
Salário 64.1K p/s
Contrato 14.03.2029

Desempenho

Comportamento Bom
Eficácia do Treinamento
36%
Desenvolvimento do Jogador
25%
Prevenção de Lesões
35%
Implementação Tática
20%

Eventos Recentes

Avaliou um jogador agora
Participou de uma reunião de recrutamento agora
Avaliou um jogador agora
Participou de uma reunião de recrutamento 7d atrás
Avaliou um jogador 7d atrás
Avaliou um jogador 7d atrás
Avaliou um jogador 7d atrás
Avaliou um jogador 7d atrás

Monitorando agora

92
Jogador Clube Status Habilidade Confiança Observado Última observação Último voto
Máximo Munarriz San Telmo Ativo 110 / 112 40% 4 01.12.2028 -
Louis Page Leicester City Ativo 148 / 158 40% 3 01.12.2028 -
Aidan Borland Espanyol Ativo 105 / 116 40% 2 29.11.2028 -
Salvador Blopá Wolverhampton Ativo 133 / 122 40% 2 29.11.2028 -
Ntando Tshwana Jomo Cosmos Ativo 83 / 102 40% 1 28.11.2028 -
Rhys Chadwick Blackpool Ativo 116 / 115 40% 1 28.11.2028 -
Peyton Miller New England Revolution Ativo 118 / 109 40% 2 27.11.2028 -
Matías Magdaleno Estudiantes Ativo 104 / 122 40% 2 27.11.2028 -
Joel Ezra Enyimba Ativo 92 / 93 40% 7 25.11.2028 -
Tyson Pearce St. Louis CITY SC Ativo 100 / 104 40% 2 25.11.2028 -
Bendito Mantato Manchester United Ativo 103 / 132 40% 2 24.11.2028 -
Olivier Leroux Mouscron Ativo 99 / 107 40% 2 24.11.2028 -
Ezra Mayers West Ham United Ativo 121 / 143 40% 2 23.11.2028 -
Tyler Fletcher Rotherham United Ativo 120 / 127 40% 2 23.11.2028 -
Trey Nyoni Rotherham United Ativo 144 / 139 40% 4 21.11.2028 -
Dovydas Sasnauskas Sheffield United Ativo 126 / 136 40% 3 21.11.2028 -
Somtochuwku Ezenabo Kwara United Ativo 106 / 93 40% 1 20.11.2028 -
Christos Mouzakitis Hull City Ativo 135 / 147 40% 6 17.11.2028 -
Aytor Herrera Mineros de Guayana Ativo 98 / 82 40% 2 17.11.2028 -
Cole Deeming West Bromwich Albion Ativo 89 / 107 40% 1 16.11.2028 -
Francisco Machis Llaneros Ativo 89 / 94 40% 4 14.11.2028 -
Ivan Borges Defensores Ativo 84 / 95 40% 1 14.11.2028 -
Abubakar Adams Aduana Stars Ativo 76 / 79 40% 3 13.11.2028 -
Gideon Manaseh Ikorodu City Ativo 80 / 87 40% 7 11.11.2028 -
Facundo Balatti Penarol Ativo 101 / 102 40% 3 11.11.2028 -
Calvin Diakite Chesterfield Ativo 98 / 95 40% 2 10.11.2028 -
Felipe Pujol Vélez Ativo 109 / 120 40% 1 07.11.2028 -
Andrey Ivlev Nizhniy Novgorod Ativo 109 / 108 40% 1 07.11.2028 -
Sebastian Rodriguez Houston Dynamo Ativo 117 / 114 40% 3 06.11.2028 -
Lucas Herrington Hull City Ativo 104 / 104 40% 2 03.11.2028 -
Onyeuche Ujunwa Ikorodu City Ativo 81 / 78 40% 2 01.11.2028 -
Diego León Rotherham United Ativo 130 / 147 40% 3 29.10.2028 -
Martim Cunha Porto Ativo 115 / 107 40% 1 29.10.2028 -
Anderson Acevedo Bogota Ativo 83 / 102 40% 1 24.10.2028 -
Carter Pinnington Liverpool Ativo 110 / 111 40% 3 23.10.2028 -
Máximo Magnoli Ferro Carril Oeste Ativo 99 / 97 40% 2 21.10.2028 -
Ronan Kpakio AC Milan Ativo 138 / 139 40% 1 21.10.2028 -
Honest Ahanor Atalanta Ativo 139 / 137 40% 2 14.10.2028 -
Jayce Fitzgerald Manchester United Ativo 115 / 123 40% 1 14.10.2028 -
Jack Shorrock Port Vale Ativo 100 / 118 40% 1 13.10.2028 -
Jan Cedilnik Chikhura Ativo 89 / 92 40% 1 12.10.2028 -
Agustín Medina Lanús Ativo 118 / 132 40% 1 12.10.2028 -
Tiago Gordillo San Miguel Ativo 78 / 106 40% 3 11.10.2028 -
Jacob Vickers Brighton Ativo 102 / 107 40% 1 10.10.2028 -
Jun'ai Byfield Tottenham Ativo 122 / 119 40% 1 08.10.2028 -
Ayyoub Bouaddi Stoke City Ativo 143 / 150 40% 1 03.10.2028 -
Giovanni Leoni Lincoln City Ativo 153 / 145 40% 1 01.10.2028 -
Leo Shahar Newcastle United Ativo 105 / 121 40% 2 29.09.2028 -
Lucas Camejo River Plate Ativo 87 / 98 40% 2 29.09.2028 -
Riquelme Thompson-Jones Accrington Stanley Ativo 115 / 107 40% 1 26.09.2028 -
Matai Akinmboni Bournemouth Ativo 101 / 137 40% 2 25.09.2028 -
Jaydan Kamason Manchester United Ativo 127 / 108 40% 2 24.09.2028 -
Ollie Harrison Hull City Ativo 91 / 104 40% 1 22.09.2028 -
Callum Olusesi Tottenham Ativo 126 / 114 40% 2 21.09.2028 -
Harrison Armstrong Ipswich Town Ativo 134 / 145 40% 4 20.09.2028 -
Luis Otávio Orlando City Ativo 116 / 112 40% 3 19.09.2028 -
Lautaro Dufur Juventud Ativo 101 / 111 40% 2 19.09.2028 -
Paul Junior Rivers United Ativo 104 / 116 40% 2 14.09.2028 -
Estanislao López Colón Ativo 84 / 89 40% 2 14.09.2028 -
Ayden Heaven Portsmouth Ativo 151 / 159 40% 2 13.09.2028 -
Celías Ingenthron Platense Ativo 120 / 117 40% 2 11.09.2028 -
Jim Thwaites Manchester United Ativo 122 / 144 40% 1 07.09.2028 -
Kiano Dyer Chelsea Ativo 124 / 116 40% 1 06.09.2028 -
Zach Baumann Norwich City Ativo 111 / 126 40% 1 01.09.2028 -
Felipe Varela Trujillanos Ativo 85 / 101 40% 1 01.09.2028 -
Emeka Adiele Utrecht Ativo 118 / 126 40% 1 30.08.2028 -
Triston Rowe Derby County Ativo 131 / 140 40% 1 29.08.2028 -
Hosea Michael Remo Stars Ativo 91 / 80 40% 1 20.08.2028 -
Augusto Bando Ascoli Ativo 110 / 115 40% 1 20.08.2028 -
Femi Fapetu Manchester City Ativo 114 / 103 40% 1 18.08.2028 -
Simone Suppa Virtus Verona Ativo 84 / 95 40% 1 16.08.2028 -
Kamaldeen Atiemo Wa All Stars Ativo 117 / 107 40% 1 14.08.2028 -
Alfie Cresswell Leeds United Ativo 101 / 126 40% 1 14.08.2028 -
Nour Ashraf ENPPI Ativo 79 / 91 40% 1 10.08.2028 -
Daniel Banjaqui Benfica Ativo 138 / 117 40% 3 03.07.2028 -
Jan Bürger Northampton Town Ativo 135 / 131 40% 2 14.06.2028 -
Peter Amidu Acquah Asante Kotoko Ativo 98 / 109 40% 1 11.06.2028 -
Shea Lacey Crystal Palace Ativo 133 / 150 40% 1 11.06.2028 -
Ryan Kavuma-McQueen Accrington Stanley Ativo 114 / 127 40% 1 10.06.2028 -
Rio Ngumoha Plymouth Argyle Ativo 129 / 140 40% 1 08.06.2028 -
Vincenzo Damiano Atalanta Ativo 100 / 112 40% 1 07.06.2028 -
Luca Williams-Barnett Walsall Ativo 112 / 125 40% 2 04.06.2028 -
Ibrahim Fullah Charlton Athletic Ativo 135 / 123 40% 1 02.06.2028 -
Kerim Alajbegović Modena Ativo 141 / 154 40% 1 02.06.2028 -
Kwandile Gumemde US Bougouni Ativo 74 / 76 40% 1 31.05.2028 -
Ryan McAidoo Oldham Athletic Ativo 108 / 144 40% 1 31.05.2028 -
Josh Nichols Oldham Athletic Ativo 124 / 127 40% 1 27.05.2028 -
Gabriel Mec Feirense Ativo 127 / 125 40% 2 26.05.2028 -
Bernardo Lima Porto Ativo 94 / 111 40% 1 24.05.2028 -
Simphiwe Selepe Orlando Pirates Ativo 126 / 138 40% 1 02.02.2027 -
Law McCabe Middlesbrough Ativo 91 / 134 40% 1 02.02.2027 -
Kobbie Mainoo Manchester United Ativo 130 / 132 40% 1 01.08.2026 -